METAR Data
IDs: Format: Raw Decoded Include TAF

Data at: 2103 UTC 21 Sep 2021

KRUE 212053Z AUTO 34010KT 10SM FEW011 OVC022 21/18 A3010 RMK AO2 RAE38 SLP187 P0001 60015 T02060178 53007
KRUE 212026Z AUTO 35009KT 4SM -RA BR FEW011 BKN019 OVC024 20/18 A3010 RMK AO2 P0001 T02000183
KRUE 212017Z AUTO 33010KT 2 1/2SM -RA BR FEW008 BKN020 OVC025 20/18 A3010 RMK AO2 P0001 T02000183
KRUE 212005Z AUTO 33012G18KT 2SM -RA BR SCT008 BKN012 OVC026 20/18 A3010 RMK AO2 LTG DSNT SE P0000 T02000183
KRUE 211953Z AUTO 33008G15KT 1 3/4SM -RA BR BKN010 OVC015 20/19 A3010 RMK AO2 RAE22B33 TSB08E23 CIG 005V012 SLP184 P0002 T02000189
KRUE 211951Z AUTO 33010G15KT 1 3/4SM -RA BR BKN010 OVC015 21/19 A3010 RMK AO2 RAE22B33 TSB08E23 CIG 005V012 P0002
KRUE 211939Z AUTO 34008KT 2SM -RA BR OVC013 21/19 A3009 RMK AO2 LTG DSNT E AND SE RAE22B33 TSB08E23 P0001 T02060189
KRUE 211929Z AUTO 35008KT 3SM BR FEW008 OVC013 21/19 A3010 RMK AO2 LTG DSNT E AND SE RAE22 TSB08E23 P0001 T02060189
KRUE 211909Z AUTO 36009KT 4SM -TSRA BR SCT008 OVC014 21/19 A3009 RMK AO2 LTG DSNT E TSB08 P0001 T02060189
KRUE 211859Z AUTO 35006KT 5SM VCTS -RA BR BKN009 OVC014 21/19 A3009 RMK AO2 CIG 005V011 P0000 T02110194
KRUE 211853Z AUTO 34010G20KT 5SM -RA BR SCT007 OVC014 22/20 A3009 RMK AO2 RAB22 SLP182 P0012 T02170200
KRUE 211851Z AUTO 34011G20KT 3SM -RA BR SCT008 OVC014 22/20 A3009 RMK AO2 RAB22 P0012
KRUE 211845Z AUTO 31015G20KT 290V010 1 1/2SM +RA BR BKN008 BKN014 OVC028 22/21 A3009 RMK AO2 RAB22 CIG 005V009 P0012 T02220206
KRUE 211840Z AUTO 26004KT 3/4SM +RA BR SCT008 BKN014 OVC028 22/21 A3008 RMK AO2 RAB22 P0009 T02220211
KRUE 211833Z AUTO 00000KT 1 1/2SM RA BR SCT011 BKN016 OVC028 22/21 A3008 RMK AO2 RAB22 P0005 T02220211
KRUE 211823Z AUTO 29003KT 7SM -RA BKN014 OVC022 23/21 A3008 RMK AO2 RAB22 P0000 T02280206
KRUE 211753Z AUTO 00000KT 10SM FEW008 BKN016 OVC027 23/21 A3008 RMK AO2 RAB26E36 SLP180 P0000 60020 T02280211 10228 20206 50013
KRUE 211717Z AUTO 00000KT 10SM FEW006 SCT010 OVC020 22/21 A3009 RMK AO2 LTG DSNT E T02220206
KRUE 211706Z AUTO 28003KT 10SM BKN008 OVC012 22/21 A3009 RMK AO2 LTG DSNT E CIG 004V010 T02220206
KRUE 211653Z AUTO 00000KT 10SM OVC011 22/21 A3009 RMK AO2 LTG DSNT E RAB26E45 CIG 009V014 SLP180 P0000 T02170206
KRUE 211637Z AUTO 20003KT 10SM -RA OVC011 22/21 A3008 RMK AO2 RAB26 P0000 T02220206
KRUE 211622Z AUTO 00000KT 10SM VCTS OVC011 22/21 A3008 RMK AO2 LTG DSNT E AND SE CIG 006V013 T02170206
KRUE 211609Z AUTO 00000KT 10SM SCT007 BKN013 OVC038 22/21 A3008 RMK AO2 LTG DSNT E T02170206
KRUE 211601Z AUTO 00000KT 10SM BKN006 BKN015 OVC038 22/21 A3007 RMK AO2 LTG DSNT E T02170206
KRUE 211553Z AUTO 31004KT 10SM SCT006 OVC038 22/21 A3007 RMK AO2 LTG DSNT E RAE34 TSB04E28 SLP176 P0013 T02170206
KRUE 211546Z AUTO 00000KT 10SM FEW004 OVC038 22/21 A3007 RMK AO2 LTG DSNT E AND SE RAE34 TSB04E28 P0013 T02170206
KRUE 211528Z AUTO 00000KT 5SM VCTS -RA BR FEW005 OVC037 21/20 A3006 RMK AO2 LTG DSNT E-S TSB04E28 P0013 T02110200
KRUE 211516Z AUTO 14004KT 3SM -TSRA BR OVC037 21/20 A3005 RMK AO2 LTG DSNT E-S TSB04 P0011 T02110200
KRUE 211504Z AUTO 19003KT 1 1/2SM +TSRA BR OVC035 22/21 A3005 RMK AO2 LTG DSNT ALQDS TSB04 P0007 T02170206
KRUE 211453Z AUTO 00000KT 2 1/2SM VCTS +RA BR OVC035 22/20 A3004 RMK AO2 VIS 1 1/4V5 LTG DSNT NE AND SW RAB41 SLP166 P0006 60007 T02170200 51023
KRUE 211353Z AUTO VRB03KT 10SM VCTS OVC036 22/20 A3003 RMK AO2 LTG DSNT N AND NE SLP160 T02170200
KRUE 211253Z AUTO 00000KT 10SM FEW025 BKN044 OVC080 22/20 A3000 RMK AO2 LTG DSNT N-E RAB30E48 SLP150 P0001 T02170200
KRUE 211239Z AUTO 00000KT 10SM -RA FEW011 BKN048 OVC080 21/20 A3000 RMK AO2 LTG DSNT N-E RAB30 P0000 T02110200
KRUE 211215Z AUTO 10SM VCTS FEW009 SCT060 OVC080 21/19 A3002 RMK AO2 LTG DSNT ALQDS PRESRR T02060194
KRUE 211205Z AUTO 23003KT 10SM SCT060 OVC080 21/20 A2998 RMK AO2 LTG DSNT ALQDS T02110200
KRUE 211153Z AUTO 00000KT 10SM VCTS FEW035 BKN060 OVC085 21/19 A2998 RMK AO2 LTG DSNT ALQDS RAE42 TSE49 SLP142 P0020 60090 70090 T02060194 10261 20206 58008
KRUE 211134Z AUTO 14005KT 3SM TSRA BR FEW033 BKN070 OVC095 21/19 A2997 RMK AO2 LTG DSNT ALQDS P0020 T02060194
KRUE 211130Z AUTO VRB06KT 1 3/4SM +TSRA BR SCT029 BKN065 OVC100 21/19 A2997 RMK AO2 LTG DSNT ALQDS P0020 T02060194
KRUE 211053Z AUTO 28005KT 9SM -TSRA BKN110 21/19 A3000 RMK AO2 LTG DSNT ALQDS TSE16B50 SLP149 P0040 T02110194
KRUE 211019Z AUTO 00000KT 5SM VCTS -RA BR SCT028 BKN070 OVC100 21/19 A2999 RMK AO2 LTG DSNT ALQDS TSE16 P0036 T02060194
KRUE 211013Z AUTO 36005KT 3SM TSRA BR BKN028 BKN055 OVC100 21/19 A2999 RMK AO2 LTG DSNT ALQDS P0035 T02060194
KRUE 210957Z AUTO 35006KT 1SM +TSRA BR BKN022 BKN039 OVC048 21/19 A2999 RMK AO2 LTG DSNT SW-N P0008 T02110194
KRUE 210953Z AUTO 29009KT 1SM +TSRA BR SCT020 BKN035 OVC055 22/19 A3000 RMK AO2 LTG DSNT SW-N RAB44 TSB40 PRESRR SLP150 P0030 T02170194
KRUE 210950Z AUTO 29011KT 1 3/4SM +TSRA FEW022 BKN048 OVC055 22/19 A3000 RMK AO2 LTG DSNT SW-N RAB44 TSB40 PRESRR P0017
KRUE 210946Z AUTO 32013KT 5SM -TSRA SCT035 BKN048 OVC055 24/19 A2998 RMK AO2 LTG DSNT SW-N RAB44 TSB40 PRESRR P0006 T02390194
KRUE 210921Z AUTO 32006KT 10SM VCTS FEW026 BKN035 OVC047 26/21 A2994 RMK AO2 LTG DSNT W-N T02560211
KRUE 210853Z AUTO 01004KT 10SM FEW048 SCT075 BKN110 26/21 A2993 RMK AO2 LTG DSNT W-N SLP125 T02560211 53007
KRUE 210753Z AUTO 00000KT 10SM CLR 24/21 A2990 RMK AO2 SLP115 T02390211
KRUE 210653Z AUTO VRB03KT 10SM CLR 25/21 A2988 RMK AO2 SLP111 T02500211
KRUE 210553Z AUTO 00000KT 10SM CLR 23/21 A2991 RMK AO2 SLP118 T02330206 10306 20233 403440211 53008
KRUE 210453Z AUTO 12003KT 10SM CLR 25/21 A2989 RMK AO2 SLP113 T02500211
KRUE 210353Z AUTO 00000KT 10SM CLR 26/21 A2989 RMK AO2 SLP111 T02560206
KRUE 210253Z AUTO 12003KT 10SM CLR 25/20 A2988 RMK AO2 SLP110 T02500200 53016
KRUE 210153Z AUTO 11003KT 10SM CLR 26/19 A2986 RMK AO2 SLP104 T02560194
KRUE 210053Z AUTO VRB03KT 10SM CLR 28/19 A2983 RMK AO2 SLP094 T02830194
KRUE 202353Z AUTO 16003KT 10SM CLR 31/19 A2983 RMK AO2 SLP094 T03110194 10344 20306 53002
KRUE 202253Z AUTO 19007KT 10SM CLR 33/18 A2983 RMK AO2 SLP091 T03280183
KRUE 202153Z AUTO VRB06KT 10SM CLR 34/19 A2982 RMK AO2 SLP091 T03390189